Time;durP1;ratioP1;P1;durP2;ratioP2;P2;SDS_P1;SDS_P2;PMS_P1;PMS_P2;Temp;Humidity;BMP_temperature;BMP_pressure;BME280_temperature;BME280_humidity;BME280_pressure;Samples;Min_cycle;Max_cycle;Signal;HPM_P1;HPM_P2
2022/08/05 00:01:12;;;;;;;5.65;2.75;;;;;;;;;;7385586;19;20015;-73
2022/08/05 00:03:37;;;;;;;;;;;;;;;;;;7389077;19;20023;-73
2022/08/05 00:06:02;;;;;;;4.85;2.70;;;;;;;;;;7385370;19;20313;-74
2022/08/05 00:08:28;;;;;;;4.00;2.58;;;;;;;;;;7388250;19;19995;-73
2022/08/05 00:10:53;;;;;;;3.97;2.65;;;;;;;;;;7385904;19;20523;-73
2022/08/05 00:13:18;;;;;;;4.43;2.75;;;;;;;;;;7385966;19;20009;-73
2022/08/05 00:15:44;;;;;;;3.88;2.40;;;;;;;;;;7384363;19;20009;-74
2022/08/05 00:18:09;;;;;;;7.60;3.08;;;;;;;;;;7387467;19;20011;-73
2022/08/05 00:20:34;;;;;;;5.20;2.65;;;;;;;;;;7388011;19;20017;-74
2022/08/05 00:23:00;;;;;;;3.53;2.00;;;;;;;;;;7388084;19;19999;-73
2022/08/05 00:25:25;;;;;;;3.75;2.30;;;;;;;;;;7385059;19;20022;-74
2022/08/05 00:27:51;;;;;;;2.63;1.85;;;;;;;;;;7387005;19;20015;-74
2022/08/05 00:30:16;;;;;;;7.93;2.65;;;;;;;;;;7386101;19;20475;-73
2022/08/05 00:32:41;;;;;;;6.07;2.55;;;;;;;;;;7385877;19;20003;-74
2022/08/05 00:35:07;;;;;;;4.18;2.20;;;;;;;;;;7384439;19;19995;-73
2022/08/05 00:37:33;;;;;;;3.63;2.28;;;;;;;;;;7382203;19;19998;-74
2022/08/05 00:39:58;;;;;;;4.90;2.67;;;;;;;;;;7382845;19;20003;-73
2022/08/05 00:42:34;;;;;;;2.88;2.08;;;;;;;;;;7380381;19;20002;-73
2022/08/05 00:45:00;;;;;;;3.67;2.08;;;;;;;;;;7381768;19;20013;-73
2022/08/05 00:47:26;;;;;;;3.65;1.90;;;;;;;;;;7382020;19;20006;-74
2022/08/05 00:49:51;;;;;;;3.08;1.88;;;;;;;;;;7381381;19;20023;-73
2022/08/05 00:52:18;;;;;;;3.88;2.15;;;;;;;;;;7384446;19;20002;-73
2022/08/05 00:54:43;;;;;;;2.72;1.80;;;;;;;;;;7386002;19;20010;-74
2022/08/05 00:57:08;;;;;;;5.07;1.52;;;;;;;;;;7379569;19;20027;-74
2022/08/05 00:59:34;;;;;;;3.13;2.00;;;;;;;;;;7382287;19;20016;-73
2022/08/05 01:01:59;;;;;;;2.10;1.73;;;;;;;;;;7382573;19;20019;-73
2022/08/05 01:04:24;;;;;;;2.63;1.63;;;;;;;;;;7379627;19;19998;-74
2022/08/05 01:06:50;;;;;;;2.47;1.60;;;;;;;;;;7383157;19;19995;-74
2022/08/05 01:09:15;;;;;;;4.25;1.70;;;;;;;;;;7384532;19;20026;-74
2022/08/05 01:11:42;;;;;;;2.72;1.70;;;;;;;;;;7381872;19;20034;-73
2022/08/05 01:14:23;;;;;;;4.35;1.70;;;;;;;;;;7381879;19;20003;-72
2022/08/05 01:16:58;;;;;;;2.72;1.55;;;;;;;;;;7383328;19;20002;-73
2022/08/05 01:19:29;;;;;;;2.88;1.63;;;;;;;;;;7386566;19;19999;-72
2022/08/05 01:22:08;;;;;;;;;;;;;;;;;;7389977;19;20011;-73
2022/08/05 01:24:46;;;;;;;3.20;1.65;;;;;;;;;;7389163;19;20233;-72
2022/08/05 01:27:31;;;;;;;1.83;1.35;;;;;;;;;;7393351;19;20087;-73
2022/08/05 01:30:01;;;;;;;3.28;1.52;;;;;;;;;;7390366;19;20003;-72
2022/08/05 01:32:32;;;;;;;2.25;1.67;;;;;;;;;;7394157;19;20377;-72
2022/08/05 01:35:05;;;;;;;3.03;1.65;;;;;;;;;;7392362;19;20002;-72
2022/08/05 01:37:46;;;;;;;1.52;1.40;;;;;;;;;;7391387;19;20041;-75
2022/08/05 01:40:14;;;;;;;2.35;1.60;;;;;;;;;;7393361;19;20119;-72
2022/08/05 01:42:41;;;;;;;2.53;1.55;;;;;;;;;;7393243;19;20005;-72
2022/08/05 01:45:08;;;;;;;6.07;1.75;;;;;;;;;;7390197;19;20003;-75
2022/08/05 01:47:35;;;;;;;3.58;1.80;;;;;;;;;;7392400;19;20340;-75
2022/08/05 01:50:04;;;;;;;3.38;1.70;;;;;;;;;;7389467;19;20009;-73
2022/08/05 01:52:33;;;;;;;2.60;1.85;;;;;;;;;;7390795;19;19998;-72
2022/08/05 01:55:04;;;;;;;2.78;2.05;;;;;;;;;;7390002;19;20020;-72
2022/08/05 01:57:34;;;;;;;;;;;;;;;;;;7390899;19;20507;-74
2022/08/05 02:00:02;;;;;;;1.85;1.52;;;;;;;;;;7392418;19;19915;-74
2022/08/05 02:02:29;;;;;;;1.83;1.55;;;;;;;;;;7391474;19;20006;-74
2022/08/05 02:04:59;;;;;;;2.67;1.65;;;;;;;;;;7388788;19;20030;-75
2022/08/05 02:07:24;;;;;;;2.33;1.60;;;;;;;;;;7388808;19;20006;-74
2022/08/05 02:09:50;;;;;;;1.90;1.65;;;;;;;;;;7386082;19;19998;-74
2022/08/05 02:12:30;;;;;;;2.47;1.40;;;;;;;;;;7387762;19;20718;-74
2022/08/05 02:15:07;;;;;;;5.20;2.17;;;;;;;;;;7386644;19;20003;-74
2022/08/05 02:17:50;;;;;;;3.17;1.60;;;;;;;;;;7386834;19;20016;-72
2022/08/05 02:20:21;;;;;;;2.72;1.60;;;;;;;;;;7387665;19;20055;-74
2022/08/05 02:22:54;;;;;;;2.17;1.60;;;;;;;;;;7392511;19;20011;-68
2022/08/05 02:25:42;;;;;;;5.97;2.15;;;;;;;;;;7390692;19;20391;-73
2022/08/05 02:28:09;;;;;;;3.33;1.90;;;;;;;;;;7390427;19;20003;-74
2022/08/05 02:30:46;;;;;;;3.22;1.75;;;;;;;;;;7393603;19;20007;-73
2022/08/05 02:33:16;;;;;;;2.25;1.85;;;;;;;;;;7393637;19;20568;-73
2022/08/05 02:35:44;;;;;;;3.10;1.90;;;;;;;;;;7393104;19;20002;-73
2022/08/05 02:38:11;;;;;;;3.55;1.80;;;;;;;;;;7391530;19;20002;-73
2022/08/05 02:40:40;;;;;;;3.40;2.13;;;;;;;;;;7392149;19;20026;-73
2022/08/05 02:43:06;;;;;;;2.58;1.85;;;;;;;;;;7392239;19;20015;-73
2022/08/05 02:45:32;;;;;;;3.92;2.00;;;;;;;;;;7390420;19;19998;-73
2022/08/05 02:48:00;;;;;;;2.47;1.73;;;;;;;;;;7389327;19;20329;-73
2022/08/05 02:50:27;;;;;;;2.15;1.60;;;;;;;;;;7389419;19;19998;-73
2022/08/05 02:52:53;;;;;;;4.40;2.03;;;;;;;;;;7391140;19;20005;-73
2022/08/05 02:55:20;;;;;;;6.60;1.90;;;;;;;;;;7388229;19;20103;-73
2022/08/05 02:57:46;;;;;;;3.30;1.90;;;;;;;;;;7392815;19;20005;-73
2022/08/05 03:00:12;;;;;;;2.22;1.77;;;;;;;;;;7390751;19;19999;-72
2022/08/05 03:02:40;;;;;;;2.42;1.67;;;;;;;;;;7390979;19;20003;-73
2022/08/05 03:05:08;;;;;;;3.30;1.80;;;;;;;;;;7387740;19;20007;-73
2022/08/05 03:07:34;;;;;;;2.75;1.80;;;;;;;;;;7393135;19;20013;-73
2022/08/05 03:10:00;;;;;;;5.30;1.80;;;;;;;;;;7389125;19;20006;-73
2022/08/05 03:12:33;;;;;;;3.42;2.13;;;;;;;;;;7391558;19;20357;-73
2022/08/05 03:14:59;;;;;;;4.40;2.28;;;;;;;;;;7389817;19;20405;-73
2022/08/05 03:17:25;;;;;;;4.60;2.83;;;;;;;;;;7389673;19;20027;-74
2022/08/05 03:19:50;;;;;;;5.38;2.10;;;;;;;;;;7389095;19;20023;-73
2022/08/05 03:22:16;;;;;;;2.83;1.88;;;;;;;;;;7390450;19;20002;-74
2022/08/05 03:24:43;;;;;;;4.75;2.25;;;;;;;;;;7390060;19;20730;-73
2022/08/05 03:27:08;;;;;;;4.88;2.47;;;;;;;;;;7388475;19;20555;-73
2022/08/05 03:29:34;;;;;;;6.68;2.80;;;;;;;;;;7383458;19;20054;-73
2022/08/05 03:32:00;;;;;;;7.85;2.35;;;;;;;;;;7383813;19;20002;-73
2022/08/05 03:34:27;;;;;;;4.07;2.20;;;;;;;;;;7383217;19;20017;-72
2022/08/05 03:36:52;;;;;;;5.32;2.95;;;;;;;;;;7384669;19;19999;-72
2022/08/05 03:39:18;;;;;;;6.50;3.28;;;;;;;;;;7385101;19;20538;-72
2022/08/05 03:41:43;;;;;;;9.60;4.57;;;;;;;;;;7385463;19;20087;-72
2022/08/05 03:44:08;;;;;;;6.00;3.03;;;;;;;;;;7386517;19;20015;-72
2022/08/05 03:46:34;;;;;;;5.50;3.30;;;;;;;;;;7382951;19;19998;-72
2022/08/05 03:48:59;;;;;;;5.82;3.03;;;;;;;;;;7384552;19;20002;-73
2022/08/05 03:51:33;;;;;;;5.55;3.22;;;;;;;;;;7383239;19;20014;-73
2022/08/05 03:54:05;;;;;;;4.32;2.58;;;;;;;;;;7384841;19;20379;-73
2022/08/05 03:56:37;;;;;;;5.47;2.90;;;;;;;;;;7382587;19;20014;-73
2022/08/05 03:59:08;;;;;;;6.40;3.65;;;;;;;;;;7388131;19;20507;-72
2022/08/05 04:01:36;;;;;;;5.22;3.05;;;;;;;;;;7387044;19;20078;-73
2022/08/05 04:04:03;;;;;;;4.95;3.15;;;;;;;;;;7387191;19;20010;-73
2022/08/05 04:06:29;;;;;;;4.57;3.00;;;;;;;;;;7386698;19;19998;-73
2022/08/05 04:08:55;;;;;;;5.72;2.58;;;;;;;;;;7388916;19;20020;-73
2022/08/05 04:11:20;;;;;;;4.78;2.70;;;;;;;;;;7389454;19;20014;-72
2022/08/05 04:13:46;;;;;;;6.80;3.15;;;;;;;;;;7388732;19;20487;-73
2022/08/05 04:16:13;;;;;;;4.80;2.72;;;;;;;;;;7386389;19;20743;-73
2022/08/05 04:18:38;;;;;;;4.53;2.45;;;;;;;;;;7388289;19;19999;-73
2022/08/05 04:21:05;;;;;;;5.60;3.33;;;;;;;;;;7392427;19;19998;-73
2022/08/05 04:23:32;;;;;;;4.40;2.80;;;;;;;;;;7388929;19;19998;-72
2022/08/05 04:25:58;;;;;;;4.60;2.70;;;;;;;;;;7385815;19;20031;-73
2022/08/05 04:28:23;;;;;;;3.95;2.80;;;;;;;;;;7388177;19;19998;-73
2022/08/05 04:30:49;;;;;;;5.45;3.20;;;;;;;;;;7387169;19;20011;-73
2022/08/05 04:33:15;;;;;;;4.65;2.85;;;;;;;;;;7391146;19;19998;-73
2022/08/05 04:35:41;;;;;;;6.97;3.08;;;;;;;;;;7390422;19;19999;-73
2022/08/05 04:39:54;;;;;;;5.63;3.03;;;;;;;;;;7426145;19;20373;-72
2022/08/05 04:42:20;;;;;;;4.70;2.70;;;;;;;;;;7371747;19;20014;-73
2022/08/05 04:44:45;;;;;;;5.68;3.03;;;;;;;;;;7424868;19;20011;-74
2022/08/05 04:47:11;;;;;;;5.00;2.90;;;;;;;;;;7427159;19;20015;-72
2022/08/05 04:49:39;;;;;;;4.75;3.00;;;;;;;;;;7421795;19;20001;-72
2022/08/05 04:52:05;;;;;;;4.07;2.60;;;;;;;;;;7423189;19;20014;-73
2022/08/05 04:54:30;;;;;;;7.20;3.05;;;;;;;;;;7427148;19;20018;-73
2022/08/05 04:56:55;;;;;;;5.30;3.00;;;;;;;;;;7422092;19;20061;-73
2022/08/05 04:59:21;;;;;;;5.95;3.40;;;;;;;;;;7419854;19;20012;-73
2022/08/05 05:01:57;;;;;;;7.95;3.47;;;;;;;;;;7422750;19;20062;-72
2022/08/05 05:04:22;;;;;;;4.82;3.20;;;;;;;;;;7424209;19;20678;-73
2022/08/05 05:06:48;;;;;;;6.95;3.13;;;;;;;;;;7423639;19;19998;-73
2022/08/05 05:09:14;;;;;;;7.20;3.25;;;;;;;;;;7423753;19;19998;-71
2022/08/05 05:11:39;;;;;;;7.80;3.72;;;;;;;;;;7423154;19;19994;-69
2022/08/05 05:14:05;;;;;;;5.90;3.15;;;;;;;;;;7422229;19;19998;-74
2022/08/05 05:16:31;;;;;;;4.15;2.70;;;;;;;;;;7421261;19;19999;-73
2022/08/05 05:18:56;;;;;;;5.40;3.13;;;;;;;;;;7420726;19;20013;-74
2022/08/05 05:21:21;;;;;;;5.15;2.92;;;;;;;;;;7426176;19;20452;-74
2022/08/05 05:23:47;;;;;;;14.57;2.95;;;;;;;;;;7318038;19;20005;-73
2022/08/05 05:26:12;;;;;;;5.00;3.30;;;;;;;;;;7422544;19;20074;-74
2022/08/05 05:28:37;;;;;;;4.85;2.78;;;;;;;;;;7427195;19;20014;-74
2022/08/05 05:31:02;;;;;;;4.90;2.67;;;;;;;;;;7421410;19;19995;-74
2022/08/05 05:33:28;;;;;;;5.85;2.47;;;;;;;;;;7421000;19;20001;-74
2022/08/05 05:35:53;;;;;;;4.32;2.00;;;;;;;;;;7419678;19;20381;-73
2022/08/05 05:38:19;;;;;;;2.97;1.83;;;;;;;;;;7412625;19;20011;-73
2022/08/05 05:40:44;;;;;;;3.10;1.98;;;;;;;;;;7418200;19;20058;-73
2022/08/05 05:43:09;;;;;;;3.60;2.25;;;;;;;;;;7417785;19;20003;-73
2022/08/05 05:45:35;;;;;;;3.67;2.08;;;;;;;;;;7416137;19;19995;-73
2022/08/05 05:48:01;;;;;;;4.25;2.28;;;;;;;;;;7415929;19;20083;-74
2022/08/05 05:50:26;;;;;;;4.13;1.80;;;;;;;;;;7398823;19;20005;-74
2022/08/05 05:52:53;;;;;;;3.30;2.28;;;;;;;;;;7390815;19;20027;-73
2022/08/05 05:55:18;;;;;;;4.07;2.00;;;;;;;;;;7388167;19;20490;-73
2022/08/05 05:57:45;;;;;;;6.20;2.55;;;;;;;;;;7388648;19;20010;-73
2022/08/05 06:00:14;;;;;;;3.63;2.30;;;;;;;;;;7388657;19;20550;-73
2022/08/05 06:02:40;;;;;;;3.83;2.10;;;;;;;;;;7388768;19;20037;-73
2022/08/05 06:05:07;;;;;;;3.75;2.30;;;;;;;;;;7387350;19;20102;-73
2022/08/05 06:07:32;;;;;;;2.95;1.90;;;;;;;;;;7391026;19;19998;-71
2022/08/05 06:09:57;;;;;;;3.40;2.13;;;;;;;;;;7395228;19;20525;-73
2022/08/05 06:12:23;;;;;;;5.10;2.17;;;;;;;;;;7391485;19;20539;-73
2022/08/05 06:14:48;;;;;;;4.18;1.95;;;;;;;;;;7394546;19;20001;-74
2022/08/05 06:17:13;;;;;;;3.35;2.33;;;;;;;;;;7393633;19;20373;-73
2022/08/05 06:19:39;;;;;;;3.75;2.30;;;;;;;;;;7394222;19;20382;-72
2022/08/05 06:22:06;;;;;;;3.38;1.90;;;;;;;;;;7395577;19;20613;-71
2022/08/05 06:24:32;;;;;;;4.25;2.42;;;;;;;;;;7396099;19;20004;-72
2022/08/05 06:26:58;;;;;;;3.33;2.03;;;;;;;;;;7393409;19;19990;-72
2022/08/05 06:29:24;;;;;;;7.57;2.55;;;;;;;;;;7394544;19;20066;-71
2022/08/05 06:31:49;;;;;;;5.00;2.70;;;;;;;;;;7394920;19;20535;-71
2022/08/05 06:34:15;;;;;;;3.22;2.15;;;;;;;;;;7395027;19;19999;-72
2022/08/05 06:36:40;;;;;;;2.55;1.75;;;;;;;;;;7391518;19;19991;-72
2022/08/05 06:39:06;;;;;;;3.33;2.28;;;;;;;;;;7391277;19;19991;-72
2022/08/05 06:41:31;;;;;;;5.22;2.78;;;;;;;;;;7393377;19;19998;-71
2022/08/05 06:43:56;;;;;;;5.00;3.00;;;;;;;;;;7393962;19;20022;-71
2022/08/05 06:46:22;;;;;;;5.10;2.80;;;;;;;;;;7391605;19;20001;-71
2022/08/05 06:48:47;;;;;;;4.68;2.92;;;;;;;;;;7392321;19;20186;-71
2022/08/05 06:51:12;;;;;;;5.13;3.00;;;;;;;;;;7395046;19;20026;-71
2022/08/05 06:53:38;;;;;;;6.40;3.30;;;;;;;;;;7393522;19;19995;-71
2022/08/05 06:56:04;;;;;;;6.00;3.05;;;;;;;;;;7392394;19;20104;-72
2022/08/05 06:58:30;;;;;;;4.90;2.50;;;;;;;;;;7392447;19;19994;-72
2022/08/05 07:01:04;;;;;;;5.82;3.03;;;;;;;;;;7390926;19;19995;-72
2022/08/05 07:03:30;;;;;;;5.10;2.88;;;;;;;;;;7391883;19;20005;-73
2022/08/05 07:05:56;;;;;;;4.82;2.85;;;;;;;;;;7392248;19;20304;-71
2022/08/05 07:08:21;;;;;;;3.17;2.08;;;;;;;;;;7394109;19;20441;-72
2022/08/05 07:10:47;;;;;;;5.10;2.60;;;;;;;;;;7391491;19;20006;-72
2022/08/05 07:18:40;;;;;;;2.92;1.67;;;;;;;;;;7393131;19;20018;-72
2022/08/05 07:21:06;;;;;;;3.45;2.20;;;;;;;;;;7391265;19;20054;-72
2022/08/05 07:23:32;;;;;;;2.75;2.00;;;;;;;;;;7392161;19;20033;-71
2022/08/05 07:25:57;;;;;;;3.85;2.20;;;;;;;;;;7391323;19;19998;-71
2022/08/05 07:28:23;;;;;;;3.47;2.33;;;;;;;;;;7393255;19;20252;-72
2022/08/05 07:30:49;;;;;;;3.17;2.20;;;;;;;;;;7390580;19;20488;-71
2022/08/05 07:33:14;;;;;;;2.75;1.92;;;;;;;;;;7391812;19;19995;-71
2022/08/05 07:35:40;;;;;;;3.97;2.25;;;;;;;;;;7390331;19;20078;-71
2022/08/05 07:38:05;;;;;;;3.63;2.17;;;;;;;;;;7392397;19;20009;-72
2022/08/05 07:40:30;;;;;;;2.58;1.90;;;;;;;;;;7393750;19;19991;-71
2022/08/05 07:42:56;;;;;;;2.67;1.63;;;;;;;;;;7390748;19;19994;-71
2022/08/05 07:45:22;;;;;;;3.10;1.98;;;;;;;;;;7390986;19;20007;-71
2022/08/05 07:47:47;;;;;;;4.20;2.33;;;;;;;;;;7392414;19;20017;-71
2022/08/05 07:50:12;;;;;;;3.50;2.17;;;;;;;;;;7393084;19;19998;-71
2022/08/05 07:52:39;;;;;;;3.00;2.05;;;;;;;;;;7390103;19;20001;-72
2022/08/05 07:55:05;;;;;;;4.20;2.47;;;;;;;;;;7389721;19;19990;-71
2022/08/05 07:57:30;;;;;;;3.88;2.20;;;;;;;;;;7392525;19;20024;-71
2022/08/05 07:59:56;;;;;;;3.65;2.40;;;;;;;;;;7389559;19;20350;-71
2022/08/05 08:02:26;;;;;;;4.57;1.92;;;;;;;;;;7390634;19;20397;-71
2022/08/05 08:04:52;;;;;;;2.60;2.00;;;;;;;;;;7389787;19;20006;-72
2022/08/05 08:07:17;;;;;;;2.20;1.90;;;;;;;;;;7388329;19;19998;-72
2022/08/05 08:09:42;;;;;;;4.65;2.55;;;;;;;;;;7391103;19;19997;-72
2022/08/05 08:12:08;;;;;;;2.50;1.90;;;;;;;;;;7391957;19;20005;-72
2022/08/05 08:14:34;;;;;;;4.18;1.95;;;;;;;;;;7391700;19;19998;-72
2022/08/05 08:16:59;;;;;;;3.35;2.05;;;;;;;;;;7391072;19;20002;-71
2022/08/05 08:19:24;;;;;;;3.50;1.95;;;;;;;;;;7388013;19;20005;-72
2022/08/05 08:21:50;;;;;;;3.22;1.92;;;;;;;;;;7391766;19;20015;-72
2022/08/05 08:24:15;;;;;;;3.00;1.98;;;;;;;;;;7392645;19;19991;-72
2022/08/05 08:26:40;;;;;;;2.50;2.00;;;;;;;;;;7388126;19;19997;-72
2022/08/05 08:29:06;;;;;;;3.13;2.05;;;;;;;;;;7352602;19;20041;-72
2022/08/05 08:31:31;;;;;;;4.25;2.30;;;;;;;;;;7389784;19;20086;-72
2022/08/05 08:33:56;;;;;;;3.92;2.17;;;;;;;;;;7391841;19;20031;-72
2022/08/05 08:36:22;;;;;;;2.72;1.73;;;;;;;;;;7389901;19;20508;-72
2022/08/05 08:38:47;;;;;;;2.13;1.48;;;;;;;;;;7388671;19;19994;-72
2022/08/05 08:41:14;;;;;;;2.70;1.95;;;;;;;;;;7390284;19;20027;-72
2022/08/05 08:43:40;;;;;;;2.20;1.63;;;;;;;;;;7336084;19;1005278;-72
2022/08/05 08:46:06;;;;;;;3.35;1.70;;;;;;;;;;7388396;19;20002;-73
2022/08/05 08:48:31;;;;;;;3.75;1.98;;;;;;;;;;7390458;19;20054;-72
2022/08/05 08:50:59;;;;;;;1.60;1.30;;;;;;;;;;7388541;19;20006;-72
2022/08/05 08:53:26;;;;;;;2.58;1.63;;;;;;;;;;7389632;19;20031;-72
2022/08/05 08:55:52;;;;;;;2.30;1.40;;;;;;;;;;7387863;19;19995;-71
2022/08/05 08:58:17;;;;;;;2.20;1.20;;;;;;;;;;7389257;19;19999;-72
2022/08/05 09:00:43;;;;;;;2.05;1.42;;;;;;;;;;7387904;19;19998;-72
2022/08/05 09:03:12;;;;;;;2.03;1.50;;;;;;;;;;7390325;19;20508;-72
2022/08/05 09:05:38;;;;;;;2.35;1.55;;;;;;;;;;7389073;19;20455;-73
2022/08/05 09:08:03;;;;;;;2.30;1.40;;;;;;;;;;7388969;19;20015;-73
2022/08/05 09:10:29;;;;;;;2.05;1.65;;;;;;;;;;7389608;19;20370;-72
2022/08/05 09:12:55;;;;;;;2.90;1.73;;;;;;;;;;7387338;19;20356;-72
2022/08/05 09:15:21;;;;;;;2.22;1.50;;;;;;;;;;7387470;19;20416;-72
2022/08/05 09:17:46;;;;;;;2.00;1.40;;;;;;;;;;7387783;19;20098;-72
2022/08/05 09:20:12;;;;;;;2.55;1.52;;;;;;;;;;7390348;19;19998;-72
2022/08/05 09:23:02;;;;;;;2.58;1.83;;;;;;;;;;7390391;19;20496;-72
2022/08/05 09:25:28;;;;;;;4.07;1.73;;;;;;;;;;7392154;19;20333;-72
2022/08/05 09:27:54;;;;;;;3.53;1.67;;;;;;;;;;7397068;19;20058;-72
2022/08/05 09:30:19;;;;;;;3.13;1.50;;;;;;;;;;7395787;19;20363;-72
2022/08/05 09:32:44;;;;;;;2.00;1.48;;;;;;;;;;7398074;19;19991;-72
2022/08/05 09:35:15;;;;;;;2.55;1.60;;;;;;;;;;7394390;19;20531;-72
2022/08/05 09:37:53;;;;;;;;;;;;;;;;;;7397352;19;20013;-72
2022/08/05 09:40:36;;;;;;;11.18;2.20;;;;;;;;;;7398045;19;19918;-71
2022/08/05 09:43:05;;;;;;;7.68;1.95;;;;;;;;;;7393350;19;20009;-72
2022/08/05 09:45:39;;;;;;;5.43;2.05;;;;;;;;;;7392984;19;19998;-72
2022/08/05 09:48:26;;;;;;;3.00;1.92;;;;;;;;;;7396660;19;20429;-71
2022/08/05 09:51:00;;;;;;;5.22;2.17;;;;;;;;;;7392851;19;20006;-72
2022/08/05 09:53:27;;;;;;;8.05;2.60;;;;;;;;;;7396182;19;20095;-72
2022/08/05 09:56:01;;;;;;;2.38;1.60;;;;;;;;;;7394343;19;19999;-72
2022/08/05 09:58:27;;;;;;;3.20;2.00;;;;;;;;;;7395807;19;20164;-72
2022/08/05 10:00:56;;;;;;;7.38;1.90;;;;;;;;;;7392509;19;20063;-72
2022/08/05 10:03:22;;;;;;;4.55;1.90;;;;;;;;;;7395679;19;19986;-72
2022/08/05 10:06:03;;;;;;;2.25;1.77;;;;;;;;;;7392020;19;20349;-72
2022/08/05 10:08:29;;;;;;;1.55;1.40;;;;;;;;;;7396193;19;19995;-72
2022/08/05 10:10:55;;;;;;;2.78;2.08;;;;;;;;;;7395380;19;19998;-72
2022/08/05 10:13:31;;;;;;;3.35;1.90;;;;;;;;;;7394691;19;19999;-72
2022/08/05 10:15:59;;;;;;;2.45;1.70;;;;;;;;;;7391941;19;19994;-71
2022/08/05 10:18:26;;;;;;;2.35;1.70;;;;;;;;;;7393719;19;20402;-72
2022/08/05 10:20:58;;;;;;;2.00;1.40;;;;;;;;;;7393432;19;20002;-72
2022/08/05 10:23:30;;;;;;;3.35;1.75;;;;;;;;;;7394155;19;20007;-72
2022/08/05 10:25:57;;;;;;;2.00;1.38;;;;;;;;;;7391413;19;20022;-73
2022/08/05 10:28:23;;;;;;;2.75;1.45;;;;;;;;;;7393691;19;20429;-72
2022/08/05 10:30:50;;;;;;;2.35;1.73;;;;;;;;;;7393029;19;20015;-72
2022/08/05 10:33:16;;;;;;;3.08;1.88;;;;;;;;;;7392909;19;20021;-72
2022/08/05 10:35:41;;;;;;;2.00;1.65;;;;;;;;;;7392442;19;20006;-72
2022/08/05 10:38:07;;;;;;;1.73;1.50;;;;;;;;;;7394171;19;19995;-72
2022/08/05 10:41:14;;;;;;;2.40;1.63;;;;;;;;;;7395676;19;19998;-72
2022/08/05 10:44:00;;;;;;;3.65;1.80;;;;;;;;;;7391815;19;19999;-72
2022/08/05 10:46:43;;;;;;;2.35;1.70;;;;;;;;;;7391165;19;20475;-72
2022/08/05 10:49:09;;;;;;;1.83;1.40;;;;;;;;;;7394607;19;20369;-72
2022/08/05 10:51:57;;;;;;;1.67;1.42;;;;;;;;;;7392191;19;20003;-72
2022/08/05 10:54:43;;;;;;;3.65;1.48;;;;;;;;;;7394610;19;20065;-72
2022/08/05 10:57:11;;;;;;;2.75;1.73;;;;;;;;;;7393139;19;20002;-71
2022/08/05 10:59:38;;;;;;;2.05;1.60;;;;;;;;;;7390039;19;20011;-72
2022/08/05 11:02:11;;;;;;;1.85;1.52;;;;;;;;;;7393838;19;20462;-72
2022/08/05 11:04:45;;;;;;;2.63;1.60;;;;;;;;;;7391833;19;20093;-72
2022/08/05 11:07:14;;;;;;;3.70;1.42;;;;;;;;;;7393181;19;20051;-72
2022/08/05 11:09:53;;;;;;;2.45;1.60;;;;;;;;;;7391771;19;19999;-73
2022/08/05 11:12:43;;;;;;;2.67;1.52;;;;;;;;;;7394423;19;20065;-72
2022/08/05 11:15:09;;;;;;;2.55;1.73;;;;;;;;;;7389752;19;20036;-72
2022/08/05 11:17:37;;;;;;;3.47;1.90;;;;;;;;;;7390345;19;19998;-72
2022/08/05 11:20:08;;;;;;;4.38;2.05;;;;;;;;;;7391469;19;20002;-72
2022/08/05 11:22:42;;;;;;;2.00;1.50;;;;;;;;;;7394319;19;20369;-72
2022/08/05 11:25:37;;;;;;;2.20;1.63;;;;;;;;;;7391602;19;20004;-72
2022/08/05 11:28:11;;;;;;;2.70;1.40;;;;;;;;;;7394281;19;19999;-72
2022/08/05 11:31:01;;;;;;;3.00;2.00;;;;;;;;;;7391633;19;20374;-73
2022/08/05 11:33:36;;;;;;;2.70;1.80;;;;;;;;;;7392950;19;20016;-73
2022/08/05 11:36:07;;;;;;;3.35;1.95;;;;;;;;;;7391975;19;20002;-73
2022/08/05 11:38:41;;;;;;;2.67;1.77;;;;;;;;;;7392741;19;19998;-72
2022/08/05 11:41:19;;;;;;;2.20;1.65;;;;;;;;;;7392355;19;20015;-73
2022/08/05 11:44:09;;;;;;;3.28;1.85;;;;;;;;;;7392975;19;20007;-73
2022/08/05 11:46:34;;;;;;;;;;;;;;;;;;7394804;19;19994;-73
2022/08/05 11:49:02;;;;;;;2.23;1.60;;;;;;;;;;7389648;19;19930;-73
2022/08/05 11:51:28;;;;;;;2.75;1.90;;;;;;;;;;7393335;19;19999;-73
2022/08/05 11:53:54;;;;;;;2.28;1.65;;;;;;;;;;7392270;19;20409;-73
2022/08/05 11:56:21;;;;;;;2.10;1.58;;;;;;;;;;7389636;19;20274;-72
2022/08/05 11:58:48;;;;;;;2.83;1.70;;;;;;;;;;7388896;19;20002;-72
2022/08/05 12:01:16;;;;;;;3.28;1.80;;;;;;;;;;7392112;19;20034;-72
2022/08/05 12:03:53;;;;;;;2.80;1.95;;;;;;;;;;7391892;19;19994;-72
2022/08/05 12:06:21;;;;;;;3.67;2.05;;;;;;;;;;7391316;19;20023;-72
2022/08/05 12:08:49;;;;;;;2.50;1.77;;;;;;;;;;7313888;19;1004722;-72
2022/08/05 12:11:20;;;;;;;2.80;1.88;;;;;;;;;;7391039;19;20066;-72
2022/08/05 12:14:07;;;;;;;3.05;1.90;;;;;;;;;;7392320;19;20002;-74
2022/08/05 12:16:42;;;;;;;4.00;1.80;;;;;;;;;;7366514;19;19998;-72
2022/08/05 12:19:10;;;;;;;2.63;1.80;;;;;;;;;;7391219;19;19998;-72
2022/08/05 12:21:48;;;;;;;3.17;1.85;;;;;;;;;;7390797;19;20022;-72
2022/08/05 12:24:20;;;;;;;3.20;1.90;;;;;;;;;;7390598;19;20015;-72
2022/08/05 12:26:48;;;;;;;4.03;2.03;;;;;;;;;;7390807;19;20005;-72
2022/08/05 12:29:18;;;;;;;3.63;2.10;;;;;;;;;;7391764;19;19995;-72
2022/08/05 12:31:52;;;;;;;2.75;1.63;;;;;;;;;;7391780;19;19998;-71
2022/08/05 12:34:19;;;;;;;6.85;2.45;;;;;;;;;;7391329;19;19998;-72
2022/08/05 12:36:46;;;;;;;5.78;2.17;;;;;;;;;;7388817;19;19995;-69
2022/08/05 12:39:12;;;;;;;6.38;2.53;;;;;;;;;;7388523;19;19999;-72
2022/08/05 12:41:39;;;;;;;6.22;2.67;;;;;;;;;;7390585;19;20003;-72
2022/08/05 12:44:10;;;;;;;5.57;2.30;;;;;;;;;;7391306;19;20024;-72
2022/08/05 12:46:37;;;;;;;5.57;2.25;;;;;;;;;;7391902;19;20001;-72
2022/08/05 12:49:13;;;;;;;2.97;1.90;;;;;;;;;;7388570;19;19998;-72
2022/08/05 12:51:54;;;;;;;3.63;2.05;;;;;;;;;;7388644;19;20002;-72
2022/08/05 12:54:21;;;;;;;3.03;2.20;;;;;;;;;;7391050;19;19995;-72
2022/08/05 12:56:56;;;;;;;4.70;2.08;;;;;;;;;;7387592;19;19995;-71
2022/08/05 12:59:28;;;;;;;4.10;2.20;;;;;;;;;;7389943;19;20003;-71
2022/08/05 13:02:06;;;;;;;5.65;2.63;;;;;;;;;;7396320;19;20022;-71
2022/08/05 13:04:37;;;;;;;7.28;2.72;;;;;;;;;;7371162;19;20008;-73
2022/08/05 13:07:11;;;;;;;6.20;2.53;;;;;;;;;;7396246;19;20005;-71
2022/08/05 13:09:38;;;;;;;8.45;3.00;;;;;;;;;;7398112;19;20368;-71
2022/08/05 13:12:08;;;;;;;6.45;3.05;;;;;;;;;;7398142;19;20026;-73
2022/08/05 13:14:42;;;;;;;13.57;4.03;;;;;;;;;;7398042;19;20006;-72
2022/08/05 13:17:27;;;;;;;5.20;2.40;;;;;;;;;;7395832;19;20097;-72
2022/08/05 13:20:17;;;;;;;3.90;2.40;;;;;;;;;;7394856;19;19999;-72
2022/08/05 13:22:48;;;;;;;16.52;3.85;;;;;;;;;;7394325;19;19995;-71
2022/08/05 13:25:16;;;;;;;3.55;2.20;;;;;;;;;;7393571;19;20523;-71
2022/08/05 13:27:46;;;;;;;3.60;2.30;;;;;;;;;;7397336;19;19994;-71
2022/08/05 13:30:14;;;;;;;6.63;2.70;;;;;;;;;;7397979;19;20002;-73
2022/08/05 13:32:40;;;;;;;6.97;2.70;;;;;;;;;;7392961;19;20512;-73
2022/08/05 13:35:06;;;;;;;3.53;1.80;;;;;;;;;;7394275;19;19998;-73
2022/08/05 13:37:31;;;;;;;3.95;1.88;;;;;;;;;;7396593;19;20009;-71
2022/08/05 13:39:57;;;;;;;4.00;2.35;;;;;;;;;;7393816;19;20029;-72
2022/08/05 13:42:23;;;;;;;4.00;2.20;;;;;;;;;;7396617;19;20023;-73
2022/08/05 13:44:53;;;;;;;3.70;1.98;;;;;;;;;;7393057;19;20067;-74
2022/08/05 13:47:19;;;;;;;5.07;2.45;;;;;;;;;;7397767;19;20222;-74
2022/08/05 13:49:44;;;;;;;4.80;2.80;;;;;;;;;;7397937;19;20467;-74
2022/08/05 13:52:18;;;;;;;5.47;2.63;;;;;;;;;;7393337;19;20026;-73
2022/08/05 13:54:44;;;;;;;4.25;2.33;;;;;;;;;;7393229;19;19999;-73
2022/08/05 13:57:10;;;;;;;5.38;2.95;;;;;;;;;;7389827;19;19998;-73
2022/08/05 13:59:36;;;;;;;4.60;2.72;;;;;;;;;;7391162;19;19998;-73
2022/08/05 14:02:02;;;;;;;5.50;3.25;;;;;;;;;;7393267;19;20354;-73
2022/08/05 14:07:20;;;;;;;5.95;3.33;;;;;;;;;;7396180;19;20036;-73
2022/08/05 14:09:45;;;;;;;3.72;2.65;;;;;;;;;;7392587;19;20014;-75
2022/08/05 14:12:11;;;;;;;4.47;2.60;;;;;;;;;;7396676;19;19999;-72
2022/08/05 14:14:36;;;;;;;3.72;2.60;;;;;;;;;;7389443;19;19999;-74
2022/08/05 14:17:03;;;;;;;5.40;2.60;;;;;;;;;;7395502;19;20011;-73
2022/08/05 14:19:28;;;;;;;4.57;2.53;;;;;;;;;;7394526;19;19998;-73
2022/08/05 14:21:53;;;;;;;5.03;3.00;;;;;;;;;;7393034;19;20073;-74
2022/08/05 14:24:19;;;;;;;5.60;3.10;;;;;;;;;;7396521;19;20040;-74
2022/08/05 14:26:44;;;;;;;4.68;2.60;;;;;;;;;;7396425;19;19987;-73
2022/08/05 14:29:10;;;;;;;7.70;3.13;;;;;;;;;;7393332;19;20406;-75
2022/08/05 14:31:35;;;;;;;7.90;4.60;;;;;;;;;;7391567;19;19998;-73
2022/08/05 14:34:00;;;;;;;8.98;5.13;;;;;;;;;;7389587;19;20002;-75
2022/08/05 14:36:26;;;;;;;9.35;5.72;;;;;;;;;;7393814;19;20012;-73
2022/08/05 14:38:51;;;;;;;9.32;6.18;;;;;;;;;;7389845;19;20010;-73
2022/08/05 14:41:17;;;;;;;10.45;6.22;;;;;;;;;;7391591;19;19998;-73
2022/08/05 14:43:42;;;;;;;11.80;6.43;;;;;;;;;;7385941;19;20114;-73
2022/08/05 14:46:07;;;;;;;9.43;6.10;;;;;;;;;;7386358;19;20010;-73
2022/08/05 14:48:33;;;;;;;9.98;6.20;;;;;;;;;;7392867;19;20030;-73
2022/08/05 14:50:58;;;;;;;10.18;5.78;;;;;;;;;;7393588;19;19995;-74
2022/08/05 14:53:23;;;;;;;10.07;6.07;;;;;;;;;;7390257;19;20014;-74
2022/08/05 14:55:49;;;;;;;10.82;7.00;;;;;;;;;;7392617;19;19995;-73
2022/08/05 14:58:14;;;;;;;7.95;4.95;;;;;;;;;;7394393;19;20005;-74
2022/08/05 15:00:40;;;;;;;8.80;5.53;;;;;;;;;;7391551;19;20436;-74